DLH7C LSZH-EDDF
Flight info
| Callsign | DLH7C |
|---|---|
| Flight time | 0h 53m |
| Altitude | 20000 |
| Route | DEGES Z1 SUDEN T164 KOVAN T163 SPESA SPESA4B |
| Aircraft | A320/M-SDE2E3FGIJ1LORWXYZ/HB1 |
Departure
| Time | 2026-05-07 18:37 |
|---|---|
| Airport | Zürich Airport (LSZH) |
Arrival
| Time | 2026-05-07 19:31 |
|---|---|
| Airport | Frankfurt Main Airport (EDDF) |
| Time | Latitude | Longitude | Altitude | Speed | Heading |
|---|---|---|---|---|---|
| 2026-05-07 18:11 | 47.45040 | 8.55858 | 1413 ft | 0 kts | 6° |
| 2026-05-07 18:27 | 47.45019 | 8.55854 | 1413 ft | 4 kts | 7° |
| 2026-05-07 18:27 | 47.44993 | 8.55850 | 1411 ft | 4 kts | 5° |
| 2026-05-07 18:27 | 47.44967 | 8.55848 | 1409 ft | 4 kts | 349° |
| 2026-05-07 18:27 | 47.44949 | 8.55860 | 1401 ft | 3 kts | 280° |
| 2026-05-07 18:28 | 47.44948 | 8.55864 | 1411 ft | 2 kts | 276° |
| 2026-05-07 18:30 | 47.44948 | 8.55859 | 1401 ft | 2 kts | 276° |
| 2026-05-07 18:31 | 47.44951 | 8.55819 | 1407 ft | 6 kts | 276° |
| 2026-05-07 18:31 | 47.44954 | 8.55751 | 1406 ft | 9 kts | 266° |
| 2026-05-07 18:31 | 47.44899 | 8.55714 | 1397 ft | 11 kts | 166° |
| 2026-05-07 18:31 | 47.44832 | 8.55758 | 1399 ft | 10 kts | 153° |
| 2026-05-07 18:32 | 47.44771 | 8.55802 | 1397 ft | 9 kts | 156° |
| 2026-05-07 18:32 | 47.44708 | 8.55844 | 1396 ft | 11 kts | 155° |
| 2026-05-07 18:32 | 47.44644 | 8.55858 | 1394 ft | 8 kts | 189° |
| 2026-05-07 18:32 | 47.44619 | 8.55822 | 1397 ft | 0 kts | 244° |
| 2026-05-07 18:35 | 47.44616 | 8.55814 | 1397 ft | 5 kts | 244° |
| 2026-05-07 18:35 | 47.44595 | 8.55739 | 1401 ft | 8 kts | 253° |
| 2026-05-07 18:36 | 47.44593 | 8.55664 | 1401 ft | 7 kts | 281° |
| 2026-05-07 18:36 | 47.44626 | 8.55618 | 1398 ft | 7 kts | 341° |
| 2026-05-07 18:36 | 47.44646 | 8.55607 | 1399 ft | 0 kts | 334° |
| 2026-05-07 18:36 | 47.44749 | 8.55535 | 1399 ft | 52 kts | 335° |
| 2026-05-07 18:37 | 47.45286 | 8.55164 | 1404 ft | 116 kts | 335° |
| 2026-05-07 18:37 | 47.46191 | 8.54553 | 1435 ft | 162 kts | 336° |
| 2026-05-07 18:37 | 47.47181 | 8.53911 | 2157 ft | 153 kts | 336° |
| 2026-05-07 18:37 | 47.48149 | 8.53285 | 2820 ft | 153 kts | 336° |
| 2026-05-07 18:38 | 47.49143 | 8.52624 | 3342 ft | 162 kts | 336° |
| 2026-05-07 18:38 | 47.50231 | 8.51874 | 3681 ft | 182 kts | 336° |
| 2026-05-07 18:38 | 47.51434 | 8.51064 | 4104 ft | 198 kts | 337° |
| 2026-05-07 18:38 | 47.52782 | 8.50337 | 4464 ft | 217 kts | 350° |
| 2026-05-07 18:39 | 47.54311 | 8.50528 | 4938 ft | 231 kts | 21° |
| 2026-05-07 18:39 | 47.55589 | 8.51875 | 5819 ft | 224 kts | 52° |
| 2026-05-07 18:39 | 47.56339 | 8.53919 | 6493 ft | 232 kts | 76° |
| 2026-05-07 18:39 | 47.56384 | 8.56310 | 7110 ft | 236 kts | 103° |
| 2026-05-07 18:40 | 47.56061 | 8.58712 | 7803 ft | 241 kts | 97° |
| 2026-05-07 18:40 | 47.56089 | 8.61222 | 8485 ft | 247 kts | 82° |
| 2026-05-07 18:40 | 47.56433 | 8.63735 | 9186 ft | 252 kts | 78° |
| 2026-05-07 18:40 | 47.56807 | 8.66294 | 9894 ft | 257 kts | 78° |
| 2026-05-07 18:41 | 47.56972 | 8.68916 | 10509 ft | 259 kts | 99° |
| 2026-05-07 18:41 | 47.56414 | 8.71449 | 11148 ft | 259 kts | 124° |
| 2026-05-07 18:41 | 47.55187 | 8.73449 | 11501 ft | 270 kts | 149° |
| 2026-05-07 18:41 | 47.53612 | 8.75027 | 12096 ft | 276 kts | 149° |
| 2026-05-07 18:42 | 47.52025 | 8.76664 | 12785 ft | 280 kts | 148° |
| 2026-05-07 18:42 | 47.50425 | 8.78340 | 13471 ft | 283 kts | 148° |
| 2026-05-07 18:42 | 47.48882 | 8.80209 | 14087 ft | 291 kts | 139° |
| 2026-05-07 18:42 | 47.47548 | 8.82519 | 14337 ft | 315 kts | 127° |
| 2026-05-07 18:43 | 47.46421 | 8.85530 | 14508 ft | 342 kts | 114° |
| 2026-05-07 18:43 | 47.45734 | 8.88992 | 14814 ft | 358 kts | 102° |
| 2026-05-07 18:43 | 47.45251 | 8.92616 | 15347 ft | 364 kts | 103° |
| 2026-05-07 18:43 | 47.44733 | 8.96295 | 16000 ft | 368 kts | 103° |
| 2026-05-07 18:44 | 47.44481 | 9.00063 | 16658 ft | 373 kts | 87° |
| 2026-05-07 18:44 | 47.45037 | 9.03791 | 17320 ft | 377 kts | 67° |
| 2026-05-07 18:44 | 47.46174 | 9.07324 | 18003 ft | 380 kts | 63° |
| 2026-05-07 18:44 | 47.47349 | 9.10831 | 18620 ft | 383 kts | 63° |
| 2026-05-07 18:45 | 47.48539 | 9.14367 | 19203 ft | 386 kts | 63° |
| 2026-05-07 18:45 | 47.49737 | 9.17925 | 19780 ft | 389 kts | 63° |
| 2026-05-07 18:45 | 47.50942 | 9.21523 | 19984 ft | 390 kts | 63° |
| 2026-05-07 18:45 | 47.52131 | 9.25094 | 20042 ft | 380 kts | 63° |
| 2026-05-07 18:46 | 47.53272 | 9.28539 | 20047 ft | 368 kts | 63° |
| 2026-05-07 18:46 | 47.54389 | 9.31923 | 20046 ft | 366 kts | 63° |
| 2026-05-07 18:46 | 47.55129 | 9.34167 | 20046 ft | 365 kts | 63° |
| 2026-05-07 18:46 | 47.56249 | 9.37527 | 20033 ft | 364 kts | 60° |
| 2026-05-07 18:47 | 47.57707 | 9.40579 | 20031 ft | 362 kts | 45° |
| 2026-05-07 18:47 | 47.59617 | 9.42982 | 20030 ft | 360 kts | 31° |
| 2026-05-07 18:47 | 47.61849 | 9.44616 | 20030 ft | 357 kts | 16° |
| 2026-05-07 18:47 | 47.64252 | 9.45401 | 20031 ft | 354 kts | 2° |
| 2026-05-07 18:48 | 47.66705 | 9.45562 | 20030 ft | 353 kts | 359° |
| 2026-05-07 18:48 | 47.69159 | 9.45695 | 20030 ft | 353 kts | 360° |
| 2026-05-07 18:48 | 47.71621 | 9.45831 | 20031 ft | 353 kts | 360° |
| 2026-05-07 18:48 | 47.74074 | 9.45964 | 20032 ft | 353 kts | 360° |
| 2026-05-07 18:49 | 47.76533 | 9.46097 | 20033 ft | 353 kts | 360° |
| 2026-05-07 18:49 | 47.78992 | 9.46225 | 20037 ft | 354 kts | 360° |
| 2026-05-07 18:49 | 47.81453 | 9.46333 | 20058 ft | 353 kts | 359° |
| 2026-05-07 18:49 | 47.83909 | 9.46365 | 20072 ft | 353 kts | 357° |
| 2026-05-07 18:50 | 47.86365 | 9.46348 | 20072 ft | 353 kts | 357° |
| 2026-05-07 18:50 | 47.88829 | 9.46316 | 20071 ft | 353 kts | 357° |
| 2026-05-07 18:50 | 47.91285 | 9.46283 | 20070 ft | 354 kts | 357° |
| 2026-05-07 18:50 | 47.93747 | 9.46257 | 20070 ft | 354 kts | 357° |
| 2026-05-07 18:51 | 47.96209 | 9.46238 | 20071 ft | 354 kts | 357° |
| 2026-05-07 18:51 | 47.98671 | 9.46214 | 20071 ft | 354 kts | 356° |
| 2026-05-07 18:51 | 48.01128 | 9.46125 | 20074 ft | 353 kts | 355° |
| 2026-05-07 18:51 | 48.03583 | 9.45986 | 20075 ft | 353 kts | 355° |
| 2026-05-07 18:52 | 48.06039 | 9.45826 | 20080 ft | 353 kts | 354° |
| 2026-05-07 18:52 | 48.08493 | 9.45659 | 20078 ft | 353 kts | 354° |
| 2026-05-07 18:52 | 48.10951 | 9.45495 | 20083 ft | 353 kts | 355° |
| 2026-05-07 18:52 | 48.13410 | 9.45338 | 20082 ft | 353 kts | 355° |
| 2026-05-07 18:53 | 48.15862 | 9.45189 | 20081 ft | 353 kts | 355° |
| 2026-05-07 18:53 | 48.18315 | 9.45045 | 20085 ft | 353 kts | 355° |
| 2026-05-07 18:53 | 48.20778 | 9.44903 | 20084 ft | 353 kts | 355° |
| 2026-05-07 18:53 | 48.23229 | 9.44758 | 20088 ft | 353 kts | 355° |
| 2026-05-07 18:54 | 48.25686 | 9.44609 | 20083 ft | 353 kts | 355° |
| 2026-05-07 18:54 | 48.28027 | 9.44470 | 20090 ft | 353 kts | 354° |
| 2026-05-07 18:54 | 48.30525 | 9.44329 | 20075 ft | 368 kts | 355° |
| 2026-05-07 18:54 | 48.33049 | 9.44189 | 20064 ft | 358 kts | 355° |
| 2026-05-07 18:55 | 48.35522 | 9.44052 | 20071 ft | 353 kts | 355° |
| 2026-05-07 18:55 | 48.37974 | 9.43912 | 20070 ft | 352 kts | 355° |
| 2026-05-07 18:55 | 48.40392 | 9.43770 | 20070 ft | 352 kts | 354° |
| 2026-05-07 18:55 | 48.42870 | 9.43620 | 20070 ft | 352 kts | 354° |
| 2026-05-07 18:56 | 48.45313 | 9.43473 | 20069 ft | 352 kts | 354° |
| 2026-05-07 18:56 | 48.47760 | 9.43326 | 20070 ft | 352 kts | 354° |
| 2026-05-07 18:56 | 48.50206 | 9.43178 | 20070 ft | 352 kts | 354° |
| 2026-05-07 18:56 | 48.52646 | 9.43029 | 20071 ft | 352 kts | 354° |
| 2026-05-07 18:57 | 48.55094 | 9.42882 | 20073 ft | 352 kts | 354° |
| 2026-05-07 18:57 | 48.57542 | 9.42737 | 20073 ft | 352 kts | 354° |
| 2026-05-07 18:57 | 48.59985 | 9.42594 | 20076 ft | 352 kts | 355° |
| 2026-05-07 18:57 | 48.62430 | 9.42451 | 20076 ft | 352 kts | 355° |
| 2026-05-07 18:58 | 48.64877 | 9.42307 | 20078 ft | 352 kts | 354° |
| 2026-05-07 18:58 | 48.67326 | 9.42163 | 20082 ft | 352 kts | 355° |
| 2026-05-07 18:58 | 48.69742 | 9.42019 | 20091 ft | 352 kts | 354° |
| 2026-05-07 18:58 | 48.72219 | 9.41868 | 20089 ft | 352 kts | 354° |
| 2026-05-07 18:59 | 48.74663 | 9.41718 | 20088 ft | 352 kts | 354° |
| 2026-05-07 18:59 | 48.77113 | 9.41573 | 20088 ft | 352 kts | 354° |
| 2026-05-07 18:59 | 48.79553 | 9.41424 | 20088 ft | 352 kts | 354° |
| 2026-05-07 18:59 | 48.82000 | 9.41273 | 20087 ft | 351 kts | 354° |
| 2026-05-07 19:00 | 48.84410 | 9.41128 | 20086 ft | 351 kts | 354° |
| 2026-05-07 19:00 | 48.86888 | 9.40977 | 20085 ft | 351 kts | 354° |
| 2026-05-07 19:00 | 48.89296 | 9.40829 | 20084 ft | 351 kts | 354° |
| 2026-05-07 19:00 | 48.91738 | 9.40680 | 20084 ft | 351 kts | 354° |
| 2026-05-07 19:01 | 48.94175 | 9.40530 | 20097 ft | 351 kts | 354° |
| 2026-05-07 19:01 | 48.96613 | 9.40380 | 20097 ft | 349 kts | 354° |
| 2026-05-07 19:01 | 48.98996 | 9.40239 | 19960 ft | 338 kts | 354° |
| 2026-05-07 19:01 | 49.01326 | 9.40101 | 19526 ft | 332 kts | 354° |
| 2026-05-07 19:02 | 49.03624 | 9.39962 | 18999 ft | 330 kts | 354° |
| 2026-05-07 19:02 | 49.05913 | 9.39819 | 18499 ft | 328 kts | 354° |
| 2026-05-07 19:02 | 49.08191 | 9.39676 | 17958 ft | 326 kts | 354° |
| 2026-05-07 19:02 | 49.10451 | 9.39537 | 17458 ft | 324 kts | 354° |
| 2026-05-07 19:03 | 49.12690 | 9.39398 | 16955 ft | 321 kts | 355° |
| 2026-05-07 19:03 | 49.14913 | 9.39260 | 16483 ft | 319 kts | 355° |
| 2026-05-07 19:03 | 49.17119 | 9.39128 | 16037 ft | 315 kts | 355° |
| 2026-05-07 19:03 | 49.19305 | 9.38999 | 15592 ft | 313 kts | 356° |
| 2026-05-07 19:04 | 49.21469 | 9.38867 | 15137 ft | 310 kts | 356° |
| 2026-05-07 19:04 | 49.23617 | 9.38734 | 14682 ft | 308 kts | 356° |
| 2026-05-07 19:04 | 49.25754 | 9.38598 | 14201 ft | 306 kts | 356° |
| 2026-05-07 19:04 | 49.27871 | 9.38462 | 13707 ft | 304 kts | 356° |
| 2026-05-07 19:05 | 49.29978 | 9.38333 | 13271 ft | 303 kts | 356° |
| 2026-05-07 19:05 | 49.32072 | 9.38206 | 12834 ft | 301 kts | 356° |
| 2026-05-07 19:05 | 49.34161 | 9.38085 | 12482 ft | 299 kts | 356° |
| 2026-05-07 19:05 | 49.36237 | 9.37962 | 12107 ft | 298 kts | 356° |
| 2026-05-07 19:06 | 49.38304 | 9.37832 | 11769 ft | 296 kts | 356° |
| 2026-05-07 19:06 | 49.42411 | 9.37573 | 11266 ft | 295 kts | 356° |
| 2026-05-07 19:06 | 49.44457 | 9.37447 | 11017 ft | 294 kts | 356° |
| 2026-05-07 19:07 | 49.46492 | 9.37324 | 10767 ft | 293 kts | 356° |
| 2026-05-07 19:07 | 49.48525 | 9.37200 | 10522 ft | 292 kts | 356° |
| 2026-05-07 19:07 | 49.50549 | 9.37071 | 10287 ft | 291 kts | 356° |
| 2026-05-07 19:07 | 49.52561 | 9.36944 | 10106 ft | 290 kts | 356° |
| 2026-05-07 19:08 | 49.54572 | 9.36819 | 10063 ft | 289 kts | 356° |
| 2026-05-07 19:08 | 49.56582 | 9.36695 | 10069 ft | 289 kts | 355° |
| 2026-05-07 19:08 | 49.58568 | 9.36568 | 10070 ft | 289 kts | 355° |
| 2026-05-07 19:08 | 49.60577 | 9.36442 | 10077 ft | 289 kts | 356° |
| 2026-05-07 19:09 | 49.62565 | 9.36321 | 10071 ft | 289 kts | 356° |
| 2026-05-07 19:09 | 49.64487 | 9.36204 | 10073 ft | 289 kts | 356° |
| 2026-05-07 19:09 | 49.66492 | 9.36081 | 10073 ft | 289 kts | 356° |
| 2026-05-07 19:09 | 49.68508 | 9.35953 | 10074 ft | 289 kts | 356° |
| 2026-05-07 19:10 | 49.70516 | 9.35822 | 10073 ft | 289 kts | 356° |
| 2026-05-07 19:10 | 49.72527 | 9.35693 | 10074 ft | 289 kts | 356° |
| 2026-05-07 19:10 | 49.74535 | 9.35566 | 10073 ft | 289 kts | 356° |
| 2026-05-07 19:10 | 49.76544 | 9.35441 | 10073 ft | 289 kts | 356° |
| 2026-05-07 19:11 | 49.78556 | 9.35314 | 10075 ft | 289 kts | 356° |
| 2026-05-07 19:11 | 49.80588 | 9.35185 | 10074 ft | 289 kts | 356° |
| 2026-05-07 19:11 | 49.82559 | 9.34941 | 10072 ft | 287 kts | 347° |
| 2026-05-07 19:11 | 49.84447 | 9.33876 | 10074 ft | 284 kts | 329° |
| 2026-05-07 19:12 | 49.85989 | 9.32057 | 10073 ft | 283 kts | 312° |
| 2026-05-07 19:12 | 49.87123 | 9.29588 | 10075 ft | 282 kts | 296° |
| 2026-05-07 19:12 | 49.87779 | 9.26737 | 10078 ft | 282 kts | 285° |
| 2026-05-07 19:12 | 49.88325 | 9.23818 | 10075 ft | 282 kts | 286° |
| 2026-05-07 19:13 | 49.88889 | 9.20868 | 10076 ft | 282 kts | 286° |
| 2026-05-07 19:13 | 49.89441 | 9.17996 | 10076 ft | 282 kts | 286° |
| 2026-05-07 19:13 | 49.90000 | 9.15078 | 10077 ft | 282 kts | 286° |
| 2026-05-07 19:13 | 49.90555 | 9.12160 | 10075 ft | 282 kts | 286° |
| 2026-05-07 19:14 | 49.91111 | 9.09237 | 10071 ft | 283 kts | 286° |
| 2026-05-07 19:14 | 49.91665 | 9.06325 | 10073 ft | 283 kts | 286° |
| 2026-05-07 19:14 | 49.92221 | 9.03404 | 10075 ft | 283 kts | 286° |
| 2026-05-07 19:14 | 49.92785 | 9.00431 | 10076 ft | 283 kts | 286° |
| 2026-05-07 19:15 | 49.93335 | 8.97535 | 10075 ft | 283 kts | 287° |
| 2026-05-07 19:15 | 49.93895 | 8.94613 | 10076 ft | 283 kts | 287° |
| 2026-05-07 19:15 | 49.94460 | 8.91682 | 10076 ft | 283 kts | 287° |
| 2026-05-07 19:15 | 49.95021 | 8.88756 | 10077 ft | 283 kts | 287° |
| 2026-05-07 19:16 | 49.95580 | 8.85828 | 10078 ft | 283 kts | 286° |
| 2026-05-07 19:16 | 49.96135 | 8.82887 | 10080 ft | 283 kts | 286° |
| 2026-05-07 19:16 | 49.96685 | 8.79950 | 10081 ft | 283 kts | 286° |
| 2026-05-07 19:16 | 49.97236 | 8.77018 | 10081 ft | 283 kts | 286° |
| 2026-05-07 19:17 | 49.97747 | 8.74067 | 10080 ft | 283 kts | 279° |
| 2026-05-07 19:17 | 49.97827 | 8.71019 | 10083 ft | 283 kts | 264° |
| 2026-05-07 19:17 | 49.97374 | 8.68043 | 10084 ft | 284 kts | 250° |
| 2026-05-07 19:17 | 49.96669 | 8.65176 | 9974 ft | 283 kts | 250° |
| 2026-05-07 19:18 | 49.95978 | 8.62324 | 9558 ft | 281 kts | 250° |
| 2026-05-07 19:18 | 49.95298 | 8.59492 | 9155 ft | 280 kts | 250° |
| 2026-05-07 19:18 | 49.94621 | 8.56672 | 8749 ft | 278 kts | 250° |
| 2026-05-07 19:18 | 49.93947 | 8.53875 | 8356 ft | 276 kts | 250° |
| 2026-05-07 19:19 | 49.93276 | 8.51093 | 8091 ft | 273 kts | 250° |
| 2026-05-07 19:19 | 49.92607 | 8.48323 | 8083 ft | 275 kts | 250° |
| 2026-05-07 19:19 | 49.91940 | 8.45549 | 8064 ft | 275 kts | 251° |
| 2026-05-07 19:19 | 49.91270 | 8.42760 | 8063 ft | 275 kts | 250° |
| 2026-05-07 19:20 | 49.90602 | 8.39990 | 7903 ft | 273 kts | 250° |
| 2026-05-07 19:20 | 49.89942 | 8.37242 | 7487 ft | 272 kts | 251° |
| 2026-05-07 19:20 | 49.89285 | 8.34492 | 7081 ft | 270 kts | 250° |
| 2026-05-07 19:20 | 49.88640 | 8.31777 | 6686 ft | 268 kts | 251° |
| 2026-05-07 19:21 | 49.87997 | 8.29078 | 6283 ft | 266 kts | 250° |
| 2026-05-07 19:21 | 49.87348 | 8.26403 | 5842 ft | 265 kts | 250° |
| 2026-05-07 19:21 | 49.86695 | 8.23730 | 5401 ft | 265 kts | 250° |
| 2026-05-07 19:21 | 49.86043 | 8.21064 | 4962 ft | 264 kts | 250° |
| 2026-05-07 19:22 | 49.85392 | 8.18406 | 4511 ft | 264 kts | 250° |
| 2026-05-07 19:22 | 49.84741 | 8.15753 | 4076 ft | 263 kts | 250° |
| 2026-05-07 19:22 | 49.84112 | 8.13104 | 3977 ft | 260 kts | 255° |
| 2026-05-07 19:22 | 49.84051 | 8.10446 | 3992 ft | 243 kts | 286° |
| 2026-05-07 19:23 | 49.84856 | 8.08217 | 3992 ft | 238 kts | 317° |
| 2026-05-07 19:23 | 49.86286 | 8.06995 | 3993 ft | 237 kts | 349° |
| 2026-05-07 19:23 | 49.87897 | 8.07135 | 3999 ft | 231 kts | 21° |
| 2026-05-07 19:23 | 49.89188 | 8.08436 | 4001 ft | 219 kts | 41° |
| 2026-05-07 19:24 | 49.90303 | 8.10042 | 3999 ft | 218 kts | 43° |
| 2026-05-07 19:24 | 49.91392 | 8.11681 | 4000 ft | 218 kts | 44° |
| 2026-05-07 19:24 | 49.92476 | 8.13333 | 4000 ft | 218 kts | 44° |
| 2026-05-07 19:24 | 49.93464 | 8.15108 | 3984 ft | 219 kts | 62° |
| 2026-05-07 19:25 | 49.94040 | 8.17297 | 4000 ft | 220 kts | 68° |
| 2026-05-07 19:25 | 49.94570 | 8.19528 | 4000 ft | 220 kts | 69° |
| 2026-05-07 19:25 | 49.95108 | 8.21759 | 3998 ft | 220 kts | 68° |
| 2026-05-07 19:25 | 49.95630 | 8.23912 | 3990 ft | 205 kts | 68° |
| 2026-05-07 19:26 | 49.96109 | 8.25888 | 4019 ft | 187 kts | 68° |
| 2026-05-07 19:26 | 49.96560 | 8.27742 | 3804 ft | 181 kts | 68° |
| 2026-05-07 19:26 | 49.96999 | 8.29550 | 3579 ft | 177 kts | 68° |
| 2026-05-07 19:26 | 49.97431 | 8.31335 | 3348 ft | 176 kts | 68° |
| 2026-05-07 19:27 | 49.97859 | 8.33101 | 3113 ft | 174 kts | 68° |
| 2026-05-07 19:27 | 49.98287 | 8.34871 | 2876 ft | 173 kts | 68° |
| 2026-05-07 19:27 | 49.98709 | 8.36616 | 2634 ft | 172 kts | 68° |
| 2026-05-07 19:27 | 49.99121 | 8.38321 | 2416 ft | 171 kts | 68° |
| 2026-05-07 19:28 | 49.99533 | 8.40030 | 2183 ft | 170 kts | 68° |
| 2026-05-07 19:28 | 49.99813 | 8.41188 | 2027 ft | 169 kts | 69° |
| 2026-05-07 19:28 | 50.00354 | 8.43435 | 1732 ft | 167 kts | 69° |
| 2026-05-07 19:28 | 50.00746 | 8.45066 | 1489 ft | 154 kts | 69° |
| 2026-05-07 19:29 | 50.01101 | 8.46570 | 1223 ft | 143 kts | 69° |
| 2026-05-07 19:29 | 50.01437 | 8.47988 | 984 ft | 136 kts | 70° |
| 2026-05-07 19:29 | 50.01666 | 8.48915 | 882 ft | 136 kts | 69° |
| 2026-05-07 19:29 | 50.02108 | 8.50731 | 699 ft | 135 kts | 69° |
| 2026-05-07 19:30 | 50.02328 | 8.51638 | 604 ft | 135 kts | 69° |
| 2026-05-07 19:30 | 50.02660 | 8.52999 | 421 ft | 134 kts | 70° |
| 2026-05-07 19:30 | 50.02968 | 8.54290 | 335 ft | 114 kts | 69° |
| 2026-05-07 19:30 | 50.03187 | 8.55212 | 346 ft | 66 kts | 70° |
| 2026-05-07 19:31 | 50.03334 | 8.55718 | 352 ft | 46 kts | 49° |
| 2026-05-07 19:31 | 50.03560 | 8.56012 | 349 ft | 38 kts | 40° |
| 2026-05-07 19:31 | 50.03693 | 8.56306 | 357 ft | 33 kts | 72° |
| 2026-05-07 19:31 | 50.03770 | 8.56633 | 355 ft | 32 kts | 69° |
| 2026-05-07 19:32 | 50.03846 | 8.56948 | 354 ft | 30 kts | 69° |
| 2026-05-07 19:32 | 50.03912 | 8.57225 | 362 ft | 25 kts | 68° |
| 2026-05-07 19:32 | 50.03973 | 8.57478 | 369 ft | 24 kts | 70° |
| 2026-05-07 19:32 | 50.04027 | 8.57710 | 368 ft | 12 kts | 71° |
| 2026-05-07 19:33 | 50.04032 | 8.57732 | 370 ft | 0 kts | 68° |